Date,TemperatureHighF,TemperatureAvgF,TemperatureLowF,DewpointHighF,DewpointAvgF,DewpointLowF,HumidityHigh,HumidityAvg,HumidityLow,PressureMaxIn,PressureMinIn,WindSpeedMaxMPH,WindSpeedAvgMPH,GustSpeedMaxMPH,PrecipitationSumIn
2013-1-1,21.0,3.7,5.0,-99.9,-99.9,-99.9,0,0,100,30.09,29.90,20,8,27,0.00
2013-1-2,20.0,4.9,15.0,-99.9,-99.9,-99.9,0,0,100,30.10,29.89,20,12,24,0.00
2013-1-3,28.0,6.1,16.0,-99.9,-99.9,-99.9,0,0,100,30.05,29.76,29,12,36,0.00
2013-1-4,33.0,14.2,25.0,-99.9,-99.9,-99.9,0,0,100,30.02,29.70,38,14,44,0.00
2013-1-5,33.0,8.7,22.0,-99.9,-99.9,-99.9,0,0,100,30.17,29.83,31,16,36,0.00
2013-1-6,28.0,6.4,21.0,-99.9,-99.9,-99.9,0,0,100,30.21,29.79,18,11,20,0.00
2013-1-7,39.0,21.8,20.0,-99.9,-99.9,-99.9,0,0,100,30.22,29.78,18,9,32,0.00
2013-1-8,41.0,32.0,30.0,-99.9,-99.9,-99.9,0,0,100,30.09,29.86,16,6,18,0.00
2013-1-9,38.0,34.4,32.0,-99.9,-99.9,-99.9,0,0,100,30.35,29.74,34,14,40,0.00
2013-1-10,39.0,29.4,29.0,-99.9,-99.9,-99.9,0,0,100,30.50,30.12,26,12,30,0.00
2013-1-11,38.0,35.9,35.0,-99.9,-99.9,-99.9,0,0,100,30.14,29.65,23,14,31,0.00
2013-1-12,47.0,38.6,33.0,-99.9,-99.9,-99.9,0,0,100,29.91,29.58,16,8,22,0.00
2013-1-13,33.0,9.4,28.0,-99.9,-99.9,-99.9,0,0,100,29.92,29.84,17,11,21,0.00
2013-1-14,24.0,7.5,18.0,-99.9,-99.9,-99.9,0,0,100,30.28,30.13,12,5,19,0.00
2013-1-15,28.0,5.8,13.0,-99.9,-99.9,-99.9,0,0,100,30.29,29.98,12,6,21,0.00
2013-1-16,31.0,7.4,18.0,-99.9,-99.9,-99.9,0,0,100,29.99,29.54,35,13,43,0.00
2013-1-17,16.0,2.3,1.0,-99.9,-99.9,-99.9,0,0,100,30.23,29.94,34,15,40,0.00
2013-1-18,22.0,3.4,7.0,-99.9,-99.9,-99.9,0,0,100,30.25,29.73,21,10,25,0.00
2013-1-19,30.0,5.9,18.0,-99.9,-99.9,-99.9,0,0,100,29.81,29.36,26,12,39,0.00
2013-1-20,26.0,3.6,6.0,-99.9,-99.9,-99.9,0,0,100,30.06,29.36,40,23,47,0.00
2013-1-21,8.0,0.8,-2.0,-99.9,-99.9,-99.9,0,0,100,30.03,29.84,17,8,21,0.00
2013-1-22,-1.0,-1.7,-12.0,-99.9,-99.9,-99.9,0,0,100,30.18,29.98,14,6,17,0.00
2013-1-23,8.0,-0.0,-8.0,-99.9,-99.9,-99.9,0,0,100,30.27,29.98,15,9,18,0.00
2013-1-24,8.0,0.5,-3.0,-99.9,-99.9,-99.9,0,0,100,30.59,30.26,17,6,21,0.00
2013-1-25,15.0,2.6,1.0,-99.9,-99.9,-99.9,0,0,100,30.42,29.97,19,12,23,0.00
2013-1-26,20.0,4.2,7.0,-99.9,-99.9,-99.9,0,0,100,30.37,30.03,12,5,14,0.00
2013-1-27,28.0,5.6,13.0,-99.9,-99.9,-99.9,0,0,100,30.38,30.08,17,12,20,0.00
2013-1-28,32.0,7.8,27.0,-99.9,-99.9,-99.9,0,0,100,30.09,29.84,20,8,22,0.00
2013-1-29,34.0,14.8,26.0,-99.9,-99.9,-99.9,0,0,100,29.97,29.49,29,-10,33,0.00
2013-1-30,34.0,17.6,13.0,-99.9,-99.9,-99.9,0,0,100,29.50,29.18,24,16,29,0.00
2013-1-31,14.0,3.3,8.0,-99.9,-99.9,-99.9,0,0,100,29.81,29.21,26,20,33,0.00
2013-2-1,12.0,1.8,1.0,-99.9,-99.9,-99.9,0,0,100,30.05,29.81,18,8,22,0.00
2013-2-2,12.0,2.4,4.0,-99.9,-99.9,-99.9,0,0,100,30.03,29.96,19,9,21,0.00
2013-2-3,16.0,2.7,4.0,-99.9,-99.9,-99.9,0,0,100,29.96,29.73,29,10,35,0.00
2013-2-4,14.0,1.2,-5.0,-99.9,-99.9,-99.9,0,0,100,29.98,29.86,12,6,19,0.00
2013-2-5,19.0,3.3,7.0,-99.9,-99.9,-99.9,0,0,100,29.94,29.68,32,10,36,0.00
2013-2-6,10.0,1.5,1.0,-99.9,-99.9,-99.9,0,0,100,30.25,29.93,20,10,24,0.00
2013-2-7,16.0,3.3,10.0,-99.9,-99.9,-99.9,0,0,100,30.27,30.18,20,12,24,0.00
2013-2-8,15.0,3.7,6.0,-99.9,-99.9,-99.9,0,0,100,30.39,30.19,13,7,15,0.00
2013-2-9,18.0,2.0,-3.0,-99.9,-99.9,-99.9,0,0,100,30.42,30.19,19,9,22,0.00
2013-2-10,31.0,6.6,12.0,-99.9,-99.9,-99.9,0,0,100,30.19,29.57,32,17,39,0.00
2013-2-11,36.0,23.6,26.0,-99.9,-99.9,-99.9,0,0,100,29.67,29.32,36,14,43,0.00
2013-2-12,28.0,7.5,21.0,-99.9,-99.9,-99.9,0,0,100,29.88,29.67,25,12,29,0.00
2013-2-13,33.0,6.9,15.0,-99.9,-99.9,-99.9,0,0,100,29.80,29.63,8,-25,9,0.00
2013-2-14,31.0,8.0,23.0,-99.9,-99.9,-99.9,0,0,100,29.80,29.63,29,3,32,0.00
2013-2-15,22.0,4.3,11.0,-99.9,-99.9,-99.9,0,0,100,30.08,29.80,29,15,33,0.00
2013-2-16,12.0,1.5,1.0,-99.9,-99.9,-99.9,0,0,100,30.13,30.05,12,5,13,0.00
2013-2-17,14.0,1.5,-2.0,-99.9,-99.9,-99.9,0,0,100,30.18,30.08,10,5,11,0.00
2013-2-18,30.0,5.9,9.0,-99.9,-99.9,-99.9,0,0,100,30.08,29.50,25,17,31,0.00
2013-2-19,32.0,6.8,10.0,-99.9,-99.9,-99.9,0,0,100,29.79,29.14,45,23,52,0.00
2013-2-20,12.0,2.1,4.0,-99.9,-99.9,-99.9,0,0,100,30.30,29.79,30,24,36,0.00
2013-2-21,15.0,2.7,4.0,-99.9,-99.9,-99.9,0,0,100,30.45,30.30,21,9,28,0.00
2013-2-22,27.0,4.6,7.0,-99.9,-99.9,-99.9,0,0,100,30.37,29.81,26,17,31,0.00
2013-2-23,32.0,7.2,21.0,-99.9,-99.9,-99.9,0,0,100,29.83,29.75,17,-10,20,0.00
2013-2-24,28.0,6.6,10.0,-99.9,-99.9,-99.9,0,0,100,30.11,29.82,15,-9,17,0.00
2013-2-25,32.0,8.3,24.0,-99.9,-99.9,-99.9,0,0,100,30.17,30.11,9,-3,11,0.00
2013-2-26,32.0,7.8,25.0,-99.9,-99.9,-99.9,0,0,100,30.19,29.91,21,9,24,0.00
2013-2-27,36.0,21.0,26.0,-99.9,-99.9,-99.9,0,0,100,29.91,29.73,19,10,21,0.00
2013-2-28,33.0,8.4,18.0,-99.9,-99.9,-99.9,0,0,100,30.15,29.78,21,16,27,0.00
2013-3-1,23.0,4.6,11.0,-99.9,-99.9,-99.9,0,0,100,30.25,30.15,19,13,22,0.00
2013-3-2,19.0,3.6,6.0,-99.9,-99.9,-99.9,0,0,100,30.24,30.10,19,9,23,0.00
2013-3-3,17.0,3.5,5.0,-99.9,-99.9,-99.9,0,0,100,30.11,30.05,14,7,18,0.00
2013-3-4,21.0,3.7,6.0,-99.9,-99.9,-99.9,0,0,100,30.17,30.09,13,7,15,0.00
2013-3-5,29.0,5.6,12.0,-99.9,-99.9,-99.9,0,0,100,30.19,30.08,14,-2,17,0.00
2013-3-6,30.0,7.4,24.0,-99.9,-99.9,-99.9,0,0,100,30.24,30.13,21,8,27,0.00
2013-3-7,27.0,7.5,23.0,-99.9,-99.9,-99.9,0,0,100,30.42,30.24,18,12,21,0.00
2013-3-8,41.0,14.7,19.0,-99.9,-99.9,-99.9,0,0,100,30.48,30.35,13,5,15,0.00
2013-3-9,35.0,16.8,19.0,-99.9,-99.9,-99.9,0,0,100,30.36,29.95,23,12,27,0.00
2013-3-10,33.0,23.8,32.0,-99.9,-99.9,-99.9,0,0,100,29.97,29.90,15,12,20,0.00